createdAt,value
2018-08-04T04:00:37.028Z,0.00
2018-08-04T04:01:37.016Z,0.00
2018-08-04T04:02:37.014Z,0.00
2018-08-04T04:03:36.990Z,0.00
2018-08-04T04:04:37.000Z,0.00
2018-08-04T04:05:36.969Z,0.00
2018-08-04T04:06:36.970Z,5.62
2018-08-04T04:07:36.936Z,5.62
2018-08-04T04:08:36.923Z,5.62
2018-08-04T04:09:36.924Z,5.62
2018-08-04T04:10:36.915Z,5.62
2018-08-04T04:11:36.895Z,5.62
2018-08-04T04:12:36.879Z,5.62
2018-08-04T04:13:36.871Z,5.62
2018-08-04T04:14:36.858Z,5.62
2018-08-04T04:15:36.859Z,5.62
2018-08-04T04:16:36.890Z,5.62
2018-08-04T04:17:36.822Z,5.62
2018-08-04T04:18:36.814Z,5.62
2018-08-04T04:19:36.800Z,5.62
2018-08-04T04:20:36.798Z,5.62
2018-08-04T04:21:36.777Z,5.62
2018-08-04T04:22:36.770Z,5.62
2018-08-04T04:23:36.762Z,5.62
2018-08-04T04:24:36.749Z,5.62
2018-08-04T04:25:36.743Z,5.62
2018-08-04T04:26:36.725Z,5.62
2018-08-04T04:27:36.719Z,5.62
2018-08-04T04:28:36.700Z,5.62
2018-08-04T04:29:36.693Z,11.25
2018-08-04T04:30:36.693Z,11.25
2018-08-04T04:31:36.672Z,11.25
2018-08-04T04:32:36.754Z,11.25
2018-08-04T04:33:36.647Z,11.25
2018-08-04T04:34:36.633Z,11.25
2018-08-04T04:35:36.634Z,11.25
2018-08-04T04:36:36.612Z,11.25
2018-08-04T04:37:36.600Z,11.25
2018-08-04T04:38:36.597Z,11.25
2018-08-04T04:39:36.587Z,11.25
2018-08-04T04:40:36.581Z,11.25
2018-08-04T04:41:36.567Z,11.25
2018-08-04T04:42:36.544Z,16.88
2018-08-04T04:43:36.540Z,16.88
2018-08-04T04:44:36.522Z,16.88
2018-08-04T04:45:36.520Z,16.88
2018-08-04T04:46:36.498Z,16.88
2018-08-04T04:47:36.489Z,16.88
2018-08-04T04:48:36.557Z,16.88
2018-08-04T04:49:36.464Z,16.88
2018-08-04T04:50:36.498Z,16.88
2018-08-04T04:51:36.445Z,16.88
2018-08-04T04:52:36.434Z,16.88
2018-08-04T04:53:36.423Z,22.50
2018-08-04T04:54:36.408Z,22.50
2018-08-04T04:55:36.400Z,22.50
2018-08-04T04:56:36.397Z,22.50
2018-08-04T04:57:36.385Z,22.50
2018-08-04T04:58:36.363Z,22.50
2018-08-04T04:59:36.355Z,22.50
2018-08-04T05:00:36.345Z,22.50
2018-08-04T05:01:36.345Z,22.50
2018-08-04T05:02:36.320Z,28.12
2018-08-04T05:03:36.312Z,28.12
2018-08-04T05:04:36.300Z,28.12
2018-08-04T05:05:36.287Z,28.12
2018-08-04T05:06:36.301Z,28.12
2018-08-04T05:07:36.264Z,28.12
2018-08-04T05:08:36.315Z,28.12
2018-08-04T05:09:36.244Z,28.12
2018-08-04T05:10:36.238Z,28.12
2018-08-04T05:11:36.277Z,33.75
2018-08-04T05:12:36.219Z,33.75
2018-08-04T05:13:36.199Z,33.75
2018-08-04T05:14:36.187Z,33.75
2018-08-04T05:15:36.176Z,33.75
2018-08-04T05:16:36.196Z,33.75
2018-08-04T05:17:36.154Z,33.75
2018-08-04T05:18:36.143Z,33.75
2018-08-04T05:19:36.133Z,33.75
2018-08-04T05:20:36.121Z,33.75
2018-08-04T05:21:36.220Z,33.75
2018-08-04T05:22:36.101Z,39.38
2018-08-04T05:23:36.092Z,39.38
2018-08-04T05:24:36.076Z,39.38
2018-08-04T05:25:36.064Z,39.38
2018-08-04T05:26:36.065Z,39.38
2018-08-04T05:27:36.042Z,39.38
2018-08-04T05:28:36.034Z,39.38
2018-08-04T05:29:36.020Z,39.38
2018-08-04T05:30:36.017Z,39.38
2018-08-04T05:31:36.013Z,39.38
2018-08-04T05:32:36.083Z,39.38
2018-08-04T05:33:35.975Z,39.38
2018-08-04T05:34:35.969Z,45.00
2018-08-04T05:35:35.952Z,45.00
2018-08-04T05:36:35.952Z,45.00
2018-08-04T05:37:35.935Z,45.00
2018-08-04T05:38:35.920Z,45.00
2018-08-04T05:39:35.908Z,45.00
2018-08-04T05:40:35.897Z,45.00
2018-08-04T05:41:35.916Z,50.62
2018-08-04T05:42:35.875Z,50.62
2018-08-04T05:43:35.882Z,50.62
2018-08-04T05:44:35.854Z,50.62
2018-08-04T05:45:35.842Z,50.62
2018-08-04T05:46:35.829Z,56.25
2018-08-04T05:47:35.830Z,56.25
2018-08-04T05:48:35.822Z,56.25
2018-08-04T05:49:35.797Z,56.25
2018-08-04T05:50:35.788Z,61.88
2018-08-04T05:51:35.774Z,61.88
2018-08-04T05:52:35.778Z,61.88
2018-08-04T05:53:35.751Z,61.88
2018-08-04T05:54:35.741Z,67.50
2018-08-04T05:55:35.751Z,67.50
2018-08-04T05:56:35.724Z,67.50
2018-08-04T05:57:35.723Z,67.50
2018-08-04T05:58:35.698Z,73.12
2018-08-04T05:59:35.743Z,73.12
2018-08-04T06:00:35.683Z,73.12
2018-08-04T06:01:35.666Z,73.12
2018-08-04T06:02:35.662Z,73.12
2018-08-04T06:03:35.640Z,73.12
2018-08-04T06:04:35.631Z,73.12
2018-08-04T06:05:35.619Z,73.12
2018-08-04T06:06:35.612Z,73.12
2018-08-04T06:07:35.612Z,78.75
2018-08-04T06:08:35.586Z,78.75
2018-08-04T06:09:35.581Z,95.62
2018-08-04T06:10:35.564Z,112.50
2018-08-04T06:11:35.572Z,84.38
2018-08-04T06:12:35.553Z,78.75
2018-08-04T06:13:35.533Z,78.75
2018-08-04T06:14:35.525Z,73.12
2018-08-04T06:15:35.506Z,67.50
2018-08-04T06:16:35.502Z,67.50
2018-08-04T06:17:35.538Z,73.12
2018-08-04T06:18:35.479Z,73.12
2018-08-04T06:19:35.462Z,73.12
2018-08-04T06:20:35.455Z,123.75
2018-08-04T06:21:35.442Z,112.50
2018-08-04T06:22:35.458Z,146.25
2018-08-04T06:23:35.419Z,151.88
2018-08-04T06:24:35.408Z,151.88
2018-08-04T06:25:35.397Z,157.50
2018-08-04T06:26:35.390Z,157.50
2018-08-04T06:27:35.384Z,157.50
2018-08-04T06:28:35.366Z,157.50
2018-08-04T06:29:35.353Z,163.12
2018-08-04T06:30:35.403Z,174.38
2018-08-04T06:31:35.330Z,174.38
2018-08-04T06:32:35.328Z,168.75
2018-08-04T06:33:35.308Z,174.38
2018-08-04T06:34:35.297Z,174.38
2018-08-04T06:35:35.293Z,174.38
2018-08-04T06:36:35.273Z,174.38
2018-08-04T06:37:35.287Z,174.38
2018-08-04T06:38:35.252Z,174.38
2018-08-04T06:39:35.240Z,180.00
2018-08-04T06:40:35.229Z,180.00
2018-08-04T06:41:35.277Z,180.00
2018-08-04T06:42:35.227Z,180.00
2018-08-04T06:43:35.198Z,180.00
2018-08-04T06:44:35.193Z,185.62
2018-08-04T06:45:35.174Z,185.62
2018-08-04T06:46:35.166Z,185.62
2018-08-04T06:47:35.408Z,185.62
2018-08-04T06:48:35.675Z,185.62
2018-08-04T06:49:35.694Z,191.25
2018-08-04T06:50:35.120Z,191.25
2018-08-04T06:51:35.113Z,191.25
2018-08-04T06:52:35.097Z,191.25
2018-08-04T06:53:35.097Z,191.25
2018-08-04T06:54:35.077Z,191.25
2018-08-04T06:55:35.067Z,191.25
2018-08-04T06:56:35.053Z,191.25
2018-08-04T06:57:35.044Z,196.88
2018-08-04T06:58:35.043Z,196.88
2018-08-04T06:59:35.020Z,196.88
2018-08-04T07:00:35.010Z,196.88
2018-08-04T07:01:35.000Z,202.50
2018-08-04T07:02:34.988Z,202.50
2018-08-04T07:03:34.988Z,202.50
2018-08-04T07:04:34.970Z,208.12
2018-08-04T07:05:34.953Z,208.12
2018-08-04T07:06:34.946Z,213.75
2018-08-04T07:07:34.958Z,213.75
2018-08-04T07:08:34.934Z,213.75
2018-08-04T07:09:34.915Z,213.75
2018-08-04T07:10:34.900Z,213.75
2018-08-04T07:11:34.890Z,213.75
2018-08-04T07:12:34.879Z,219.38
2018-08-04T07:13:34.879Z,225.00
2018-08-04T07:14:34.861Z,225.00
2018-08-04T07:15:34.847Z,230.62
2018-08-04T07:16:34.837Z,230.62
2018-08-04T07:17:34.825Z,236.25
2018-08-04T07:18:34.826Z,236.25
2018-08-04T07:19:34.808Z,236.25
2018-08-04T07:20:34.794Z,241.88
2018-08-04T07:21:34.782Z,247.50
2018-08-04T07:22:34.771Z,247.50
2018-08-04T07:23:34.792Z,247.50
2018-08-04T07:24:34.746Z,247.50
2018-08-04T07:25:34.737Z,253.12
2018-08-04T07:26:34.748Z,253.12
2018-08-04T07:27:34.716Z,258.75
2018-08-04T07:28:34.705Z,264.38
2018-08-04T07:29:34.702Z,264.38
2018-08-04T07:30:34.689Z,270.00
2018-08-04T07:31:34.672Z,275.62
2018-08-04T07:32:34.662Z,275.62
2018-08-04T07:33:34.651Z,275.62
2018-08-04T07:34:34.649Z,275.62
2018-08-04T07:35:34.627Z,281.25
2018-08-04T07:36:34.619Z,281.25
2018-08-04T07:37:34.608Z,286.88
2018-08-04T07:38:34.595Z,286.88
2018-08-04T07:39:34.596Z,286.88
2018-08-04T07:40:34.591Z,292.50
2018-08-04T07:41:34.563Z,292.50
2018-08-04T07:42:34.554Z,298.12
2018-08-04T07:43:34.551Z,298.12
2018-08-04T07:44:34.539Z,298.12
2018-08-04T07:45:34.520Z,298.12
2018-08-04T07:46:34.509Z,298.12
2018-08-04T07:47:34.552Z,303.75
2018-08-04T07:48:34.491Z,303.75
2018-08-04T07:49:34.489Z,309.38
2018-08-04T07:50:34.466Z,309.38
2018-08-04T07:51:34.483Z,315.00
2018-08-04T07:52:34.448Z,315.00
2018-08-04T07:53:34.455Z,315.00
2018-08-04T07:54:34.438Z,315.00
2018-08-04T07:55:34.414Z,320.62
2018-08-04T07:56:34.405Z,320.62
2018-08-04T07:57:34.393Z,326.25
2018-08-04T07:58:34.382Z,326.25
2018-08-04T07:59:34.454Z,331.88
2018-08-04T08:00:34.360Z,331.88
2018-08-04T08:01:34.351Z,343.12
2018-08-04T08:02:34.342Z,360.00
2018-08-04T08:03:34.329Z,354.38
2018-08-04T08:04:34.330Z,348.75
2018-08-04T08:05:34.308Z,343.12
2018-08-04T08:06:34.294Z,348.75
2018-08-04T08:07:34.285Z,360.00
2018-08-04T08:08:34.277Z,365.62
2018-08-04T08:09:34.273Z,410.62
2018-08-04T08:10:34.341Z,506.25
2018-08-04T08:11:34.257Z,720.00
2018-08-04T08:12:34.231Z,860.62
2018-08-04T08:13:34.222Z,1220.62
2018-08-04T08:14:34.228Z,1929.38
2018-08-04T08:15:34.198Z,1940.62
2018-08-04T08:16:34.190Z,1743.75
2018-08-04T08:17:34.175Z,821.25
2018-08-04T08:18:34.164Z,472.50
2018-08-04T08:19:34.175Z,433.12
2018-08-04T08:20:34.143Z,421.88
2018-08-04T08:21:34.133Z,421.88
2018-08-04T08:22:34.121Z,433.12
2018-08-04T08:23:34.110Z,433.12
2018-08-04T08:24:34.099Z,421.88
2018-08-04T08:25:34.106Z,421.88
2018-08-04T08:26:34.088Z,427.50
2018-08-04T08:27:34.071Z,421.88
2018-08-04T08:28:34.065Z,421.88
2018-08-04T08:29:34.052Z,421.88
2018-08-04T08:30:34.047Z,427.50
2018-08-04T08:31:34.083Z,427.50
2018-08-04T08:32:34.052Z,427.50
2018-08-04T08:33:34.010Z,433.12
2018-08-04T08:34:33.994Z,438.75
2018-08-04T08:35:34.003Z,433.12
2018-08-04T08:36:33.971Z,433.12
2018-08-04T08:37:33.958Z,438.75
2018-08-04T08:38:33.949Z,433.12
2018-08-04T08:39:33.936Z,433.12
2018-08-04T08:40:33.939Z,433.12
2018-08-04T08:41:33.914Z,438.75
2018-08-04T08:42:33.905Z,433.12
2018-08-04T08:43:33.894Z,433.12
2018-08-04T08:44:33.881Z,433.12
2018-08-04T08:45:33.878Z,438.75
2018-08-04T08:46:33.860Z,444.38
2018-08-04T08:47:33.847Z,427.50
2018-08-04T08:48:33.838Z,421.88
2018-08-04T08:49:33.825Z,421.88
2018-08-04T08:50:33.824Z,416.25
2018-08-04T08:51:33.811Z,416.25
2018-08-04T08:52:33.792Z,421.88
2018-08-04T08:53:34.160Z,421.88
2018-08-04T08:54:33.773Z,421.88
2018-08-04T08:55:33.794Z,421.88
2018-08-04T08:56:33.750Z,421.88
2018-08-04T08:57:33.740Z,421.88
2018-08-04T08:58:33.730Z,421.88
2018-08-04T08:59:33.719Z,421.88
2018-08-04T09:00:33.708Z,427.50
2018-08-04T09:01:33.711Z,427.50
2018-08-04T09:02:33.688Z,427.50
2018-08-04T09:03:33.677Z,427.50
2018-08-04T09:04:33.667Z,427.50
2018-08-04T09:05:33.665Z,427.50
2018-08-04T09:06:33.655Z,427.50
2018-08-04T09:07:33.637Z,433.12
2018-08-04T09:08:33.638Z,433.12
2018-08-04T09:09:33.613Z,438.75
2018-08-04T09:10:33.610Z,444.38
2018-08-04T09:11:33.597Z,438.75
2018-08-04T09:12:33.582Z,444.38
2018-08-04T09:13:33.616Z,438.75
2018-08-04T09:14:33.558Z,450.00
2018-08-04T09:15:33.607Z,455.62
2018-08-04T09:16:33.550Z,444.38
2018-08-04T09:17:33.528Z,444.38
2018-08-04T09:18:33.529Z,455.62
2018-08-04T09:19:33.506Z,450.00
2018-08-04T09:20:33.494Z,450.00
2018-08-04T09:21:33.494Z,450.00
2018-08-04T09:22:33.474Z,455.62
2018-08-04T09:23:33.464Z,450.00
2018-08-04T09:24:33.457Z,450.00
2018-08-04T09:25:33.447Z,444.38
2018-08-04T09:26:33.441Z,450.00
2018-08-04T09:27:33.420Z,444.38
2018-08-04T09:28:33.415Z,444.38
2018-08-04T09:29:33.399Z,444.38
2018-08-04T09:30:33.387Z,450.00
2018-08-04T09:31:33.393Z,450.00
2018-08-04T09:32:33.371Z,450.00
2018-08-04T09:33:33.358Z,450.00
2018-08-04T09:34:33.349Z,450.00
2018-08-04T09:35:33.338Z,450.00
2018-08-04T09:36:33.334Z,450.00
2018-08-04T09:37:33.314Z,450.00
2018-08-04T09:38:33.308Z,444.38
2018-08-04T09:39:33.292Z,438.75
2018-08-04T09:40:33.283Z,450.00
2018-08-04T09:41:33.281Z,455.62
2018-08-04T09:42:33.258Z,461.25
2018-08-04T09:43:33.250Z,478.12
2018-08-04T09:44:33.239Z,652.50
2018-08-04T09:45:33.227Z,1209.38
2018-08-04T09:46:33.247Z,933.75
2018-08-04T09:47:33.204Z,399.38
2018-08-04T09:48:33.193Z,163.12
2018-08-04T09:49:33.183Z,118.12
2018-08-04T09:50:33.175Z,118.12
2018-08-04T09:51:33.161Z,123.75
2018-08-04T09:52:33.211Z,123.75
2018-08-04T09:53:33.142Z,343.12
2018-08-04T09:54:33.130Z,337.50
2018-08-04T09:55:33.117Z,343.12
2018-08-04T09:56:33.105Z,241.88
2018-08-04T09:57:33.109Z,343.12
2018-08-04T09:58:33.086Z,343.12
2018-08-04T09:59:33.092Z,331.88
2018-08-04T10:00:33.062Z,326.25
2018-08-04T10:01:33.053Z,326.25
2018-08-04T10:02:33.051Z,309.38
2018-08-04T10:03:33.029Z,292.50
2018-08-04T10:04:33.018Z,275.62
2018-08-04T10:05:33.007Z,253.12
2018-08-04T10:06:33.000Z,230.62
2018-08-04T10:07:33.005Z,208.12
2018-08-04T10:08:32.976Z,185.62
2018-08-04T10:09:32.965Z,157.50
2018-08-04T10:10:32.958Z,140.62
2018-08-04T10:11:32.944Z,135.00
2018-08-04T10:12:32.945Z,129.38
2018-08-04T10:13:32.931Z,118.12
2018-08-04T10:14:32.913Z,118.12
2018-08-04T10:15:32.902Z,118.12
2018-08-04T10:16:32.890Z,118.12
2018-08-04T10:17:32.891Z,112.50
2018-08-04T10:18:32.872Z,112.50
2018-08-04T10:19:32.859Z,106.88
2018-08-04T10:20:32.849Z,112.50
2018-08-04T10:21:32.839Z,112.50
2018-08-04T10:22:32.837Z,118.12
2018-08-04T10:23:32.816Z,118.12
2018-08-04T10:24:32.808Z,118.12
2018-08-04T10:25:32.797Z,112.50
2018-08-04T10:26:32.788Z,112.50
2018-08-04T10:27:32.786Z,112.50
2018-08-04T10:28:32.770Z,112.50
2018-08-04T10:29:32.753Z,106.88
2018-08-04T10:30:32.745Z,106.88
2018-08-04T10:31:32.733Z,106.88
2018-08-04T10:32:32.780Z,106.88
2018-08-04T10:33:32.714Z,112.50
2018-08-04T10:34:32.700Z,112.50
2018-08-04T10:35:32.691Z,112.50
2018-08-04T10:36:32.679Z,118.12
2018-08-04T10:37:32.668Z,118.12
2018-08-04T10:38:32.711Z,123.75
2018-08-04T10:39:32.648Z,123.75
2018-08-04T10:40:32.638Z,112.50
2018-08-04T10:41:32.629Z,112.50
2018-08-04T10:42:32.618Z,106.88
2018-08-04T10:43:32.619Z,106.88
2018-08-04T10:44:32.596Z,106.88
2018-08-04T10:45:32.584Z,106.88
2018-08-04T10:46:32.582Z,101.25
2018-08-04T10:47:32.565Z,101.25
2018-08-04T10:48:32.564Z,90.00
2018-08-04T10:49:32.584Z,90.00
2018-08-04T10:50:32.534Z,90.00
2018-08-04T10:51:32.521Z,90.00
2018-08-04T10:52:32.511Z,95.62
2018-08-04T10:53:32.512Z,95.62
2018-08-04T10:54:32.491Z,90.00
2018-08-04T10:55:32.481Z,90.00
2018-08-04T10:56:32.467Z,90.00
2018-08-04T10:57:32.467Z,90.00
2018-08-04T10:58:32.462Z,90.00
2018-08-04T10:59:32.434Z,90.00
2018-08-04T11:00:32.428Z,90.00
2018-08-04T11:01:32.415Z,90.00
2018-08-04T11:02:32.405Z,95.62
2018-08-04T11:03:32.407Z,95.62
2018-08-04T11:04:32.381Z,95.62
2018-08-04T11:05:32.372Z,90.00
2018-08-04T11:06:32.359Z,84.38
2018-08-04T11:07:32.350Z,84.38
2018-08-04T11:08:32.353Z,78.75
2018-08-04T11:09:32.331Z,78.75
2018-08-04T11:10:32.320Z,78.75
2018-08-04T11:11:32.306Z,73.12
2018-08-04T11:12:32.349Z,78.75
2018-08-04T11:13:32.297Z,78.75
2018-08-04T11:14:32.287Z,78.75
2018-08-04T11:15:32.264Z,78.75
2018-08-04T11:16:32.257Z,84.38
2018-08-04T11:17:32.247Z,84.38
2018-08-04T11:18:32.269Z,84.38
2018-08-04T11:19:32.223Z,84.38
2018-08-04T11:20:32.212Z,84.38
2018-08-04T11:21:32.201Z,84.38
2018-08-04T11:22:32.190Z,84.38
2018-08-04T11:23:32.185Z,78.75
2018-08-04T11:24:32.180Z,73.12
2018-08-04T11:25:32.158Z,78.75
2018-08-04T11:26:32.148Z,78.75
2018-08-04T11:27:32.137Z,73.12
2018-08-04T11:28:32.127Z,73.12
2018-08-04T11:29:32.125Z,78.75
2018-08-04T11:30:32.103Z,78.75
2018-08-04T11:31:32.095Z,84.38
2018-08-04T11:32:32.107Z,90.00
2018-08-04T11:33:32.070Z,90.00
2018-08-04T11:34:32.071Z,90.00
2018-08-04T11:35:32.054Z,90.00
2018-08-04T11:36:32.041Z,90.00
2018-08-04T11:37:32.036Z,90.00
2018-08-04T11:38:32.020Z,90.00
2018-08-04T11:39:32.020Z,90.00
2018-08-04T11:40:32.002Z,90.00
2018-08-04T11:41:31.988Z,84.38
2018-08-04T11:42:31.977Z,84.38
2018-08-04T11:43:31.977Z,84.38
2018-08-04T11:44:31.970Z,84.38
2018-08-04T11:45:32.000Z,84.38
2018-08-04T11:46:31.937Z,84.38
2018-08-04T11:47:31.923Z,84.38
2018-08-04T11:48:31.914Z,84.38
2018-08-04T11:49:31.916Z,84.38
2018-08-04T11:50:31.892Z,84.38
2018-08-04T11:51:31.954Z,84.38
2018-08-04T11:52:31.873Z,84.38
2018-08-04T11:53:31.861Z,90.00
2018-08-04T11:54:31.862Z,90.00
2018-08-04T11:55:31.841Z,90.00
2018-08-04T11:56:31.834Z,95.62
2018-08-04T11:57:31.821Z,95.62
2018-08-04T11:58:31.918Z,95.62
2018-08-04T11:59:31.817Z,95.62
2018-08-04T12:00:31.788Z,95.62
2018-08-04T12:01:31.777Z,95.62
2018-08-04T12:02:31.769Z,95.62
2018-08-04T12:03:31.758Z,95.62
2018-08-04T12:04:31.758Z,101.25
2018-08-04T12:05:31.767Z,101.25
2018-08-04T12:06:31.733Z,95.62
2018-08-04T12:07:31.721Z,95.62
2018-08-04T12:08:31.733Z,95.62
2018-08-04T12:09:31.701Z,95.62
2018-08-04T12:10:31.716Z,95.62
2018-08-04T12:11:31.676Z,95.62
2018-08-04T12:12:31.665Z,95.62
2018-08-04T12:13:31.669Z,95.62
2018-08-04T12:14:31.651Z,90.00
2018-08-04T12:15:31.645Z,90.00
2018-08-04T12:16:31.632Z,90.00
2018-08-04T12:17:31.615Z,90.00
2018-08-04T12:18:31.604Z,90.00
2018-08-04T12:19:31.599Z,90.00
2018-08-04T12:20:31.591Z,84.38
2018-08-04T12:21:31.571Z,84.38
2018-08-04T12:22:31.560Z,84.38
2018-08-04T12:23:31.549Z,84.38
2018-08-04T12:24:31.540Z,78.75
2018-08-04T12:25:31.591Z,78.75
2018-08-04T12:26:31.518Z,78.75
2018-08-04T12:27:31.507Z,78.75
2018-08-04T12:28:31.496Z,78.75
2018-08-04T12:29:31.492Z,78.75
2018-08-04T12:30:31.488Z,78.75
2018-08-04T12:31:31.538Z,78.75
2018-08-04T12:32:31.455Z,78.75
2018-08-04T12:33:31.455Z,78.75
2018-08-04T12:34:31.440Z,78.75
2018-08-04T12:35:31.435Z,78.75
2018-08-04T12:36:31.412Z,78.75
2018-08-04T12:37:31.469Z,78.75
2018-08-04T12:38:31.394Z,78.75
2018-08-04T12:39:31.387Z,78.75
2018-08-04T12:40:31.381Z,84.38
2018-08-04T12:41:31.361Z,90.00
2018-08-04T12:42:31.349Z,90.00
2018-08-04T12:43:31.337Z,90.00
2018-08-04T12:44:31.328Z,90.00
2018-08-04T12:45:31.380Z,90.00
2018-08-04T12:46:31.307Z,84.38
2018-08-04T12:47:31.302Z,84.38
2018-08-04T12:48:31.287Z,84.38
2018-08-04T12:49:31.279Z,84.38
2018-08-04T12:50:31.276Z,84.38
2018-08-04T12:51:31.254Z,78.75
2018-08-04T12:52:31.248Z,78.75
2018-08-04T12:53:31.242Z,73.12
2018-08-04T12:54:31.251Z,67.50
2018-08-04T12:55:31.240Z,67.50
2018-08-04T12:56:31.205Z,67.50
2018-08-04T12:57:31.196Z,67.50
2018-08-04T12:58:31.188Z,73.12
2018-08-04T12:59:31.205Z,67.50
2018-08-04T13:00:31.165Z,67.50
2018-08-04T13:01:31.164Z,67.50
2018-08-04T13:02:31.192Z,67.50
2018-08-04T13:03:31.134Z,67.50
2018-08-04T13:04:31.122Z,78.75
2018-08-04T13:05:31.114Z,78.75
2018-08-04T13:06:31.162Z,78.75
2018-08-04T13:07:31.095Z,73.12
2018-08-04T13:08:31.082Z,73.12
2018-08-04T13:09:31.069Z,73.12
2018-08-04T13:10:31.058Z,73.12
2018-08-04T13:11:31.058Z,73.12
2018-08-04T13:12:31.042Z,67.50
2018-08-04T13:13:31.027Z,61.88
2018-08-04T13:14:31.018Z,61.88
2018-08-04T13:15:31.010Z,61.88
2018-08-04T13:16:31.006Z,61.88
2018-08-04T13:17:30.989Z,67.50
2018-08-04T13:18:30.977Z,67.50
2018-08-04T13:19:30.968Z,67.50
2018-08-04T13:20:30.957Z,73.12
2018-08-04T13:21:30.958Z,67.50
2018-08-04T13:22:30.936Z,67.50
2018-08-04T13:23:30.924Z,61.88
2018-08-04T13:24:30.926Z,61.88
2018-08-04T13:25:30.903Z,61.88
2018-08-04T13:26:30.909Z,56.25
2018-08-04T13:27:30.884Z,56.25
2018-08-04T13:28:30.870Z,56.25
2018-08-04T13:29:30.867Z,50.62
2018-08-04T13:30:30.865Z,50.62
2018-08-04T13:31:30.849Z,56.25
2018-08-04T13:32:30.851Z,56.25
2018-08-04T13:33:30.816Z,61.88
2018-08-04T13:34:30.811Z,61.88
2018-08-04T13:35:30.798Z,56.25
2018-08-04T13:36:30.798Z,56.25
2018-08-04T13:37:30.832Z,50.62
2018-08-04T13:38:30.766Z,50.62
2018-08-04T13:39:30.755Z,50.62
2018-08-04T13:40:30.746Z,56.25
2018-08-04T13:41:30.748Z,56.25
2018-08-04T13:42:30.721Z,61.88
2018-08-04T13:43:30.720Z,61.88
2018-08-04T13:44:30.701Z,61.88
2018-08-04T13:45:30.692Z,61.88
2018-08-04T13:46:30.773Z,61.88
2018-08-04T13:47:30.671Z,61.88
2018-08-04T13:48:30.660Z,61.88
2018-08-04T13:49:30.649Z,61.88
2018-08-04T13:50:30.645Z,67.50
2018-08-04T13:51:30.633Z,67.50
2018-08-04T13:52:30.629Z,61.88
2018-08-04T13:53:30.608Z,61.88
2018-08-04T13:54:30.602Z,61.88
2018-08-04T13:55:30.589Z,61.88
2018-08-04T13:56:30.575Z,61.88
2018-08-04T13:57:30.577Z,61.88
2018-08-04T13:58:30.553Z,61.88
2018-08-04T13:59:30.549Z,61.88
2018-08-04T14:00:30.536Z,61.88
2018-08-04T14:01:30.523Z,67.50
2018-08-04T14:02:30.525Z,61.88
2018-08-04T14:03:30.497Z,61.88
2018-08-04T14:04:30.489Z,56.25
2018-08-04T14:05:30.476Z,45.00
2018-08-04T14:06:30.482Z,39.38
2018-08-04T14:07:30.466Z,39.38
2018-08-04T14:08:30.445Z,45.00
2018-08-04T14:09:30.434Z,45.00
2018-08-04T14:10:30.426Z,45.00
2018-08-04T14:11:30.412Z,45.00
2018-08-04T14:12:30.418Z,45.00
2018-08-04T14:13:30.394Z,45.00
2018-08-04T14:14:30.380Z,45.00
2018-08-04T14:15:30.368Z,45.00
2018-08-04T14:16:30.357Z,50.62
2018-08-04T14:17:30.435Z,50.62
2018-08-04T14:18:30.392Z,56.25
2018-08-04T14:19:30.325Z,56.25
2018-08-04T14:20:30.319Z,56.25
2018-08-04T14:21:30.305Z,56.25
2018-08-04T14:22:30.301Z,50.62
2018-08-04T14:23:30.280Z,50.62
2018-08-04T14:24:30.273Z,50.62
2018-08-04T14:25:30.260Z,50.62
2018-08-04T14:26:30.250Z,50.62
2018-08-04T14:27:30.255Z,50.62
2018-08-04T14:28:30.314Z,50.62
2018-08-04T14:29:30.226Z,50.62
2018-08-04T14:30:30.206Z,56.25
2018-08-04T14:31:30.204Z,56.25
2018-08-04T14:32:30.229Z,56.25
2018-08-04T14:33:30.178Z,56.25
2018-08-04T14:34:30.165Z,56.25
2018-08-04T14:35:30.182Z,56.25
2018-08-04T14:36:30.142Z,50.62
2018-08-04T14:37:30.129Z,50.62
2018-08-04T14:38:30.129Z,56.25
2018-08-04T14:39:30.108Z,56.25
2018-08-04T14:40:30.096Z,50.62
2018-08-04T14:41:30.137Z,50.62
2018-08-04T14:42:30.076Z,50.62
2018-08-04T14:43:30.077Z,50.62
2018-08-04T14:44:30.061Z,50.62
2018-08-04T14:45:30.043Z,50.62
2018-08-04T14:46:30.031Z,50.62
2018-08-04T14:47:30.020Z,50.62
2018-08-04T14:48:30.019Z,56.25
2018-08-04T14:49:30.017Z,56.25
2018-08-04T14:50:29.990Z,61.88
2018-08-04T14:51:29.983Z,61.88
2018-08-04T14:52:29.969Z,61.88
2018-08-04T14:53:29.965Z,61.88
2018-08-04T14:54:29.947Z,61.88
2018-08-04T14:55:29.940Z,61.88
2018-08-04T14:56:29.926Z,61.88
2018-08-04T14:57:29.913Z,61.88
2018-08-04T14:58:29.913Z,61.88
2018-08-04T14:59:29.895Z,56.25
2018-08-04T15:00:29.880Z,50.62
2018-08-04T15:01:29.871Z,50.62
2018-08-04T15:02:29.860Z,45.00
2018-08-04T15:03:29.869Z,45.00
2018-08-04T15:04:29.873Z,45.00
2018-08-04T15:05:29.828Z,45.00
2018-08-04T15:06:29.817Z,45.00
2018-08-04T15:07:29.810Z,50.62
2018-08-04T15:08:29.806Z,45.00
2018-08-04T15:09:29.787Z,45.00
2018-08-04T15:10:29.773Z,45.00
2018-08-04T15:11:29.764Z,45.00
2018-08-04T15:12:29.755Z,45.00
2018-08-04T15:13:29.775Z,45.00
2018-08-04T15:14:29.733Z,39.38
2018-08-04T15:15:29.727Z,39.38
2018-08-04T15:16:29.712Z,39.38
2018-08-04T15:17:29.702Z,33.75
2018-08-04T15:18:29.693Z,33.75
2018-08-04T15:19:29.694Z,33.75
2018-08-04T15:20:29.672Z,33.75
2018-08-04T15:21:29.727Z,28.12
2018-08-04T15:22:29.649Z,28.12
2018-08-04T15:23:29.639Z,28.12
2018-08-04T15:24:29.640Z,28.12
2018-08-04T15:25:29.619Z,28.12
2018-08-04T15:26:29.610Z,28.12
2018-08-04T15:27:29.597Z,28.12
2018-08-04T15:28:29.585Z,28.12
2018-08-04T15:29:29.586Z,28.12
2018-08-04T15:30:29.565Z,28.12
2018-08-04T15:31:29.556Z,28.12
2018-08-04T15:32:29.546Z,28.12
2018-08-04T15:33:29.534Z,28.12
2018-08-04T15:34:29.539Z,28.12
2018-08-04T15:35:29.516Z,28.12
2018-08-04T15:36:29.502Z,28.12
2018-08-04T15:37:29.501Z,28.12
2018-08-04T15:38:29.486Z,28.12
2018-08-04T15:39:29.486Z,28.12
2018-08-04T15:40:29.463Z,33.75
2018-08-04T15:41:29.453Z,33.75
2018-08-04T15:42:29.443Z,33.75
2018-08-04T15:43:29.429Z,39.38
2018-08-04T15:44:29.438Z,39.38
2018-08-04T15:45:29.410Z,39.38
2018-08-04T15:46:29.399Z,39.38
2018-08-04T15:47:29.388Z,39.38
2018-08-04T15:48:29.379Z,39.38
2018-08-04T15:49:29.407Z,39.38
2018-08-04T15:50:29.356Z,33.75
2018-08-04T15:51:29.346Z,33.75
2018-08-04T15:52:29.336Z,33.75
2018-08-04T15:53:29.325Z,33.75
2018-08-04T15:54:29.335Z,33.75
2018-08-04T15:55:29.306Z,33.75
2018-08-04T15:56:29.295Z,33.75
2018-08-04T15:57:29.284Z,33.75
2018-08-04T15:58:29.275Z,33.75
2018-08-04T15:59:29.276Z,33.75
2018-08-04T16:00:29.252Z,33.75
2018-08-04T16:01:29.255Z,33.75
2018-08-04T16:02:29.233Z,33.75
2018-08-04T16:03:29.222Z,33.75
2018-08-04T16:04:29.239Z,28.12
2018-08-04T16:05:29.202Z,28.12
2018-08-04T16:06:29.191Z,33.75
2018-08-04T16:07:29.184Z,33.75
2018-08-04T16:08:29.169Z,33.75
2018-08-04T16:09:29.160Z,33.75
2018-08-04T16:10:29.159Z,33.75
2018-08-04T16:11:29.140Z,33.75
2018-08-04T16:12:29.128Z,33.75
2018-08-04T16:13:29.119Z,33.75
2018-08-04T16:14:29.108Z,33.75
2018-08-04T16:15:29.108Z,33.75
2018-08-04T16:16:29.088Z,33.75
2018-08-04T16:17:29.090Z,39.38
2018-08-04T16:18:29.070Z,39.38
2018-08-04T16:19:29.064Z,39.38
2018-08-04T16:20:29.059Z,39.38
2018-08-04T16:21:29.037Z,39.38
2018-08-04T16:22:29.025Z,39.38
2018-08-04T16:23:29.014Z,39.38
2018-08-04T16:24:29.021Z,39.38
2018-08-04T16:25:29.005Z,39.38
2018-08-04T16:26:28.982Z,39.38
2018-08-04T16:27:28.971Z,39.38
2018-08-04T16:28:28.959Z,39.38
2018-08-04T16:29:28.957Z,39.38
2018-08-04T16:30:28.952Z,39.38
2018-08-04T16:31:28.930Z,39.38
2018-08-04T16:32:28.928Z,39.38
2018-08-04T16:33:28.908Z,33.75
2018-08-04T16:34:28.901Z,28.12
2018-08-04T16:35:28.903Z,28.12
2018-08-04T16:36:28.877Z,28.12
2018-08-04T16:37:28.870Z,28.12
2018-08-04T16:38:28.867Z,28.12
2018-08-04T16:39:28.846Z,22.50
2018-08-04T16:40:28.850Z,22.50
2018-08-04T16:41:28.864Z,22.50
2018-08-04T16:42:28.815Z,22.50
2018-08-04T16:43:28.808Z,22.50
2018-08-04T16:44:28.796Z,22.50